Hlavní strana
METAR-TAF:

METAR-TAF

Letiště :

Rygge, Norsko

zeměpisná šířka: 59-23N, zeměpisná délka: 010-47E, výška: 5 m

Aktuální stav počasí

Zpráva byla vytvořena před 17 minutami, v 18:20 UTC
Severoseverozápadní vítr 7 kt
Teplota 2°C
Vlhkost vzduchu 29%
Tlak 1020 hPa
Viditelnost 10 km a více

METAR: ENRY 071820Z AUTO 33007KT 9999NDV NCD 02/M14 Q1020

Čas: 19:37 (18:37 UTC)

Předpověď počasí

Předpověď platná od 07 v 18 UTC do 08 v 18 UTC
Severoseverozápadní vítr 7 kt
Viditelnost 10 km a více
Žádná oblačnost pod 1500 m, nevyskytují se cumulonimby.
Změna
od 08 v 10 UTC do 08 v 12 UTC
Jihojihozápadní vítr 10 kt

TAF: ENRY 0718/0818 34007KT CAVOK BECMG 0810/0812 20010KT

Stav a předpovědi počasí z více než 4 000 letišť (zprávy METAR a TAF).

Červené a žluté tečky na mapě představují dostupné meteorologické stanice.

Když kurzor umístíte na tečku, zobrazí se název stanice.

Pak kliknutím zobrazíte stav a předpověď počasí.

Chcete-li změnit mapu, kliknutím na zelené tlačítko se znaménkem +mapu přiblížíte, kliknutím na zelené tlačítko se znaménkem – mapu oddálíte a kliknutím na zelené šipky přejdete na sousední mapy.


METAR-TAF: